sensor_id;sensor_type;location;lat;lon;timestamp;pressure;altitude;pressure_sealevel;temperature;humidity
77871;BME280;67067;46.850;7.578;2024-03-22T00:00:00;96052.06;;;5.86;53.70
77871;BME280;67067;46.850;7.578;2024-03-22T00:01:04;96052.47;;;5.83;53.72
77871;BME280;67067;46.850;7.578;2024-03-22T00:02:05;96057.13;;;5.81;53.43
77871;BME280;67067;46.850;7.578;2024-03-22T00:03:08;96053.91;;;5.79;53.58
77871;BME280;67067;46.850;7.578;2024-03-22T00:04:09;96057.34;;;5.80;53.80
77871;BME280;67067;46.850;7.578;2024-03-22T00:05:10;96052.50;;;5.77;53.83
77871;BME280;67067;46.850;7.578;2024-03-22T00:06:10;96062.38;;;5.74;53.72
77871;BME280;67067;46.850;7.578;2024-03-22T00:07:11;96060.13;;;5.71;53.64
77871;BME280;67067;46.850;7.578;2024-03-22T00:08:12;96064.00;;;5.69;54.09
77871;BME280;67067;46.850;7.578;2024-03-22T00:09:13;96062.38;;;5.68;53.92
77871;BME280;67067;46.850;7.578;2024-03-22T00:10:14;96063.38;;;5.67;54.01
77871;BME280;67067;46.850;7.578;2024-03-22T00:11:15;96065.59;;;5.63;54.33
77871;BME280;67067;46.850;7.578;2024-03-22T00:12:16;96073.25;;;5.58;54.04
77871;BME280;67067;46.850;7.578;2024-03-22T00:13:18;96070.84;;;5.56;54.35
77871;BME280;67067;46.850;7.578;2024-03-22T00:14:19;96070.00;;;5.56;54.30
77871;BME280;67067;46.850;7.578;2024-03-22T00:15:19;96064.28;;;5.39;55.10
77871;BME280;67067;46.850;7.578;2024-03-22T00:16:20;96062.69;;;5.44;54.78
77871;BME280;67067;46.850;7.578;2024-03-22T00:17:21;96070.38;;;5.46;54.94
77871;BME280;67067;46.850;7.578;2024-03-22T00:18:22;96059.88;;;5.46;54.60
77871;BME280;67067;46.850;7.578;2024-03-22T00:19:23;96065.53;;;5.50;54.70
77871;BME280;67067;46.850;7.578;2024-03-22T00:20:23;96066.00;;;5.53;54.62
77871;BME280;67067;46.850;7.578;2024-03-22T00:21:24;96070.22;;;5.54;54.96
77871;BME280;67067;46.850;7.578;2024-03-22T00:22:25;96068.00;;;5.58;54.82
77871;BME280;67067;46.850;7.578;2024-03-22T00:23:26;96065.19;;;5.59;54.82
77871;BME280;67067;46.850;7.578;2024-03-22T00:24:30;96066.81;;;5.61;55.19
77871;BME280;67067;46.850;7.578;2024-03-22T00:25:31;96070.84;;;5.63;54.88
77871;BME280;67067;46.850;7.578;2024-03-22T00:26:35;96065.19;;;5.66;55.18
77871;BME280;67067;46.850;7.578;2024-03-22T00:27:36;96068.84;;;5.72;54.72
77871;BME280;67067;46.850;7.578;2024-03-22T00:28:37;96066.22;;;5.72;54.83
77871;BME280;67067;46.850;7.578;2024-03-22T00:29:38;96062.59;;;5.73;54.86
77871;BME280;67067;46.850;7.578;2024-03-22T00:30:39;96059.56;;;5.76;54.77
77871;BME280;67067;46.850;7.578;2024-03-22T00:31:41;96069.25;;;5.82;54.92
77871;BME280;67067;46.850;7.578;2024-03-22T00:32:42;96058.75;;;5.82;55.03
77871;BME280;67067;46.850;7.578;2024-03-22T00:33:45;96063.59;;;5.85;54.58
77871;BME280;67067;46.850;7.578;2024-03-22T00:34:45;96058.34;;;5.85;54.88
77871;BME280;67067;46.850;7.578;2024-03-22T00:35:51;96057.34;;;5.86;54.72
77871;BME280;67067;46.850;7.578;2024-03-22T00:36:51;96062.59;;;5.86;54.85
77871;BME280;67067;46.850;7.578;2024-03-22T00:37:52;96057.34;;;5.86;54.53
77871;BME280;67067;46.850;7.578;2024-03-22T00:38:56;96058.34;;;5.85;54.88
77871;BME280;67067;46.850;7.578;2024-03-22T00:39:57;96064.44;;;5.86;54.61
77871;BME280;67067;46.850;7.578;2024-03-22T00:40:58;96054.13;;;5.91;54.49
77871;BME280;67067;46.850;7.578;2024-03-22T00:41:59;96052.69;;;5.88;54.77
77871;BME280;67067;46.850;7.578;2024-03-22T00:43:00;96056.75;;;5.91;54.40
77871;BME280;67067;46.850;7.578;2024-03-22T00:44:00;96052.28;;;5.92;54.46
77871;BME280;67067;46.850;7.578;2024-03-22T00:45:01;96056.34;;;5.94;54.63
77871;BME280;67067;46.850;7.578;2024-03-22T00:46:05;96057.53;;;5.92;54.54
77871;BME280;67067;46.850;7.578;2024-03-22T00:47:09;96057.34;;;5.93;54.18
77871;BME280;67067;46.850;7.578;2024-03-22T00:48:09;96057.53;;;5.92;54.23
77871;BME280;67067;46.850;7.578;2024-03-22T00:49:10;96052.28;;;5.92;54.18
77871;BME280;67067;46.850;7.578;2024-03-22T00:50:16;96057.94;;;5.88;54.45
77871;BME280;67067;46.850;7.578;2024-03-22T00:51:17;96054.72;;;5.86;54.44
77871;BME280;67067;46.850;7.578;2024-03-22T00:52:20;96056.94;;;5.90;54.28
77871;BME280;67067;46.850;7.578;2024-03-22T00:53:21;96055.31;;;5.88;54.40
77871;BME280;67067;46.850;7.578;2024-03-22T00:54:22;96051.91;;;5.88;54.50
77871;BME280;67067;46.850;7.578;2024-03-22T00:55:23;96054.09;;;5.84;54.25
77871;BME280;67067;46.850;7.578;2024-03-22T00:56:24;96055.13;;;5.83;54.35
77871;BME280;67067;46.850;7.578;2024-03-22T00:57:27;96050.66;;;5.77;54.29
77871;BME280;67067;46.850;7.578;2024-03-22T00:58:29;96051.88;;;5.68;54.66
77871;BME280;67067;46.850;7.578;2024-03-22T00:59:30;96053.41;;;5.49;55.14
77871;BME280;67067;46.850;7.578;2024-03-22T01:00:30;96050.22;;;5.60;54.76
77871;BME280;67067;46.850;7.578;2024-03-22T01:01:31;96055.47;;;5.60;54.64
77871;BME280;67067;46.850;7.578;2024-03-22T01:02:32;96053.66;;;5.54;55.02
77871;BME280;67067;46.850;7.578;2024-03-22T01:03:33;96044.56;;;5.56;55.04
77871;BME280;67067;46.850;7.578;2024-03-22T01:04:34;96057.31;;;5.59;54.71
77871;BME280;67067;46.850;7.578;2024-03-22T01:05:34;96053.88;;;5.59;54.94
77871;BME280;67067;46.850;7.578;2024-03-22T01:06:35;96054.69;;;5.59;55.08
77871;BME280;67067;46.850;7.578;2024-03-22T01:07:39;96047.19;;;5.63;54.66
77871;BME280;67067;46.850;7.578;2024-03-22T01:08:42;96056.31;;;5.61;54.88
77871;BME280;67067;46.850;7.578;2024-03-22T01:09:43;96055.69;;;5.58;54.93
77871;BME280;67067;46.850;7.578;2024-03-22T01:10:44;96050.22;;;5.60;55.01
77871;BME280;67067;46.850;7.578;2024-03-22T01:11:45;96053.69;;;5.61;54.99
77871;BME280;67067;46.850;7.578;2024-03-22T01:12:46;96052.25;;;5.58;55.12
77871;BME280;67067;46.850;7.578;2024-03-22T01:13:47;96049.00;;;5.56;54.79
77871;BME280;67067;46.850;7.578;2024-03-22T01:14:47;96054.88;;;5.51;54.89
77871;BME280;67067;46.850;7.578;2024-03-22T01:15:48;96048.16;;;5.49;54.92
77871;BME280;67067;46.850;7.578;2024-03-22T01:16:49;96043.72;;;5.49;54.89
77871;BME280;67067;46.850;7.578;2024-03-22T01:17:50;96039.28;;;5.43;55.19
77871;BME280;67067;46.850;7.578;2024-03-22T01:18:55;96043.09;;;5.40;55.24
77871;BME280;67067;46.850;7.578;2024-03-22T01:19:56;96045.72;;;5.40;55.12
77871;BME280;67067;46.850;7.578;2024-03-22T01:21:02;96034.00;;;5.36;55.00
77871;BME280;67067;46.850;7.578;2024-03-22T01:22:03;96038.59;;;5.27;55.15
77871;BME280;67067;46.850;7.578;2024-03-22T01:23:06;96036.59;;;5.29;55.18
77871;BME280;67067;46.850;7.578;2024-03-22T01:24:07;96038.00;;;5.25;55.47
77871;BME280;67067;46.850;7.578;2024-03-22T01:25:08;96032.53;;;5.20;55.39
77871;BME280;67067;46.850;7.578;2024-03-22T01:26:10;96034.94;;;5.15;55.53
77871;BME280;67067;46.850;7.578;2024-03-22T01:27:11;96029.06;;;5.13;55.55
77871;BME280;67067;46.850;7.578;2024-03-22T01:28:12;96027.66;;;5.10;55.89
77871;BME280;67067;46.850;7.578;2024-03-22T01:29:13;96033.53;;;5.12;55.76
77871;BME280;67067;46.850;7.578;2024-03-22T01:30:14;96029.06;;;5.13;55.59
77871;BME280;67067;46.850;7.578;2024-03-22T01:31:15;96033.09;;;5.09;55.81
77871;BME280;67067;46.850;7.578;2024-03-22T01:32:16;96031.88;;;5.05;56.07
77871;BME280;67067;46.850;7.578;2024-03-22T01:33:18;96029.03;;;4.99;55.93
77871;BME280;67067;46.850;7.578;2024-03-22T01:34:18;96035.91;;;5.00;55.97
77871;BME280;67067;46.850;7.578;2024-03-22T01:35:19;96032.06;;;4.96;56.47
77871;BME280;67067;46.850;7.578;2024-03-22T01:36:20;96029.44;;;4.96;56.29
77871;BME280;67067;46.850;7.578;2024-03-22T01:37:21;96031.44;;;4.94;56.23
77871;BME280;67067;46.850;7.578;2024-03-22T01:38:22;96027.19;;;4.93;56.04
77871;BME280;67067;46.850;7.578;2024-03-22T01:39:22;96025.75;;;4.91;56.18
77871;BME280;67067;46.850;7.578;2024-03-22T01:40:23;96020.50;;;4.84;56.37
77871;BME280;67067;46.850;7.578;2024-03-22T01:41:26;96021.28;;;4.84;56.35
77871;BME280;67067;46.850;7.578;2024-03-22T01:42:29;96023.75;;;4.86;56.45
77871;BME280;67067;46.850;7.578;2024-03-22T01:43:32;96018.06;;;4.82;56.21
77871;BME280;67067;46.850;7.578;2024-03-22T01:44:33;96017.50;;;4.87;56.41
77871;BME280;67067;46.850;7.578;2024-03-22T01:45:34;96016.88;;;4.85;56.12
77871;BME280;67067;46.850;7.578;2024-03-22T01:46:35;96021.50;;;4.83;55.98
77871;BME280;67067;46.850;7.578;2024-03-22T01:47:36;96025.75;;;4.84;56.29
77871;BME280;67067;46.850;7.578;2024-03-22T01:48:37;96014.66;;;4.82;56.28
77871;BME280;67067;46.850;7.578;2024-03-22T01:49:37;96017.00;;;4.70;56.41
77871;BME280;67067;46.850;7.578;2024-03-22T01:50:38;96022.03;;;4.71;56.56
77871;BME280;67067;46.850;7.578;2024-03-22T01:51:39;96016.56;;;4.66;56.64
77871;BME280;67067;46.850;7.578;2024-03-22T01:52:41;96020.13;;;4.52;56.90
77871;BME280;67067;46.850;7.578;2024-03-22T01:53:42;96022.81;;;4.65;56.56
77871;BME280;67067;46.850;7.578;2024-03-22T01:54:43;96021.81;;;4.66;56.09
77871;BME280;67067;46.850;7.578;2024-03-22T01:55:43;96020.78;;;4.61;56.42
77871;BME280;67067;46.850;7.578;2024-03-22T01:56:44;96017.72;;;4.57;56.65
77871;BME280;67067;46.850;7.578;2024-03-22T01:57:45;96013.69;;;4.54;56.70
77871;BME280;67067;46.850;7.578;2024-03-22T01:58:51;96013.88;;;4.46;57.34
77871;BME280;67067;46.850;7.578;2024-03-22T01:59:53;96012.03;;;4.47;57.05
77871;BME280;67067;46.850;7.578;2024-03-22T02:12:38;96013.09;;;4.59;57.27
77871;BME280;67067;46.850;7.578;2024-03-22T02:13:39;96016.66;;;4.45;57.25
77871;BME280;67067;46.850;7.578;2024-03-22T02:14:40;96010.06;;;4.55;57.08
77871;BME280;67067;46.850;7.578;2024-03-22T02:15:44;96014.09;;;4.58;57.19
77871;BME280;67067;46.850;7.578;2024-03-22T02:16:45;96021.19;;;4.57;57.01
77871;BME280;67067;46.850;7.578;2024-03-22T02:17:48;96017.13;;;4.55;57.10
77871;BME280;67067;46.850;7.578;2024-03-22T02:18:49;96014.50;;;4.55;56.88
77871;BME280;67067;46.850;7.578;2024-03-22T02:19:52;96016.09;;;4.49;57.10
77871;BME280;67067;46.850;7.578;2024-03-22T02:20:53;96016.88;;;4.50;57.15
77871;BME280;67067;46.850;7.578;2024-03-22T02:21:54;96018.91;;;4.48;57.48
77871;BME280;67067;46.850;7.578;2024-03-22T02:22:54;96021.53;;;4.48;57.07
77871;BME280;67067;46.850;7.578;2024-03-22T02:23:55;96017.28;;;4.47;56.92
77871;BME280;67067;46.850;7.578;2024-03-22T02:24:56;96018.50;;;4.44;57.17
77871;BME280;67067;46.850;7.578;2024-03-22T02:25:57;96019.28;;;4.45;56.89
77871;BME280;67067;46.850;7.578;2024-03-22T02:27:00;96019.50;;;4.50;56.91
77871;BME280;67067;46.850;7.578;2024-03-22T02:28:01;96019.50;;;4.50;57.10
77871;BME280;67067;46.850;7.578;2024-03-22T02:29:04;96015.28;;;4.49;57.05
77871;BME280;67067;46.850;7.578;2024-03-22T02:30:05;96018.28;;;4.46;56.99
77871;BME280;67067;46.850;7.578;2024-03-22T02:31:06;96016.28;;;4.48;57.26
77871;BME280;67067;46.850;7.578;2024-03-22T02:32:07;96018.28;;;4.46;57.31
77871;BME280;67067;46.850;7.578;2024-03-22T02:33:10;96010.56;;;4.37;57.14
77871;BME280;67067;46.850;7.578;2024-03-22T02:34:12;96013.38;;;4.36;57.35
77871;BME280;67067;46.850;7.578;2024-03-22T02:35:13;96006.09;;;4.31;57.43
77871;BME280;67067;46.850;7.578;2024-03-22T02:36:14;96008.56;;;4.39;57.27
77871;BME280;67067;46.850;7.578;2024-03-22T02:37:17;96008.97;;;4.36;57.09
77871;BME280;67067;46.850;7.578;2024-03-22T02:38:21;96014.81;;;4.38;57.08
77871;BME280;67067;46.850;7.578;2024-03-22T02:39:22;96005.09;;;4.32;57.35
77871;BME280;67067;46.850;7.578;2024-03-22T02:40:23;96008.09;;;4.29;57.69
77871;BME280;67067;46.850;7.578;2024-03-22T02:41:24;96008.09;;;4.29;57.64
77871;BME280;67067;46.850;7.578;2024-03-22T02:42:24;96008.91;;;4.30;57.25
77871;BME280;67067;46.850;7.578;2024-03-22T02:43:25;96004.88;;;4.27;57.34
77871;BME280;67067;46.850;7.578;2024-03-22T02:44:26;96000.81;;;4.24;57.48
77871;BME280;67067;46.850;7.578;2024-03-22T02:45:27;96000.25;;;4.29;57.39
77871;BME280;67067;46.850;7.578;2024-03-22T02:46:27;95998.00;;;4.26;57.33
77871;BME280;67067;46.850;7.578;2024-03-22T02:47:31;95998.00;;;4.26;57.43
77871;BME280;67067;46.850;7.578;2024-03-22T02:48:31;95996.81;;;4.28;57.12
77871;BME280;67067;46.850;7.578;2024-03-22T02:49:35;95988.75;;;4.30;57.12
77871;BME280;67067;46.850;7.578;2024-03-22T02:50:37;95991.38;;;4.30;57.01
77871;BME280;67067;46.850;7.578;2024-03-22T02:51:38;95989.72;;;4.22;57.19
77871;BME280;67067;46.850;7.578;2024-03-22T02:52:39;95989.91;;;4.21;57.22
77871;BME280;67067;46.850;7.578;2024-03-22T02:53:39;95988.09;;;4.21;57.11
77871;BME280;67067;46.850;7.578;2024-03-22T02:54:41;95985.06;;;4.18;57.27
77871;BME280;67067;46.850;7.578;2024-03-22T02:55:42;95982.22;;;4.19;57.23
77871;BME280;67067;46.850;7.578;2024-03-22T02:56:42;95985.69;;;4.20;57.33
77871;BME280;67067;46.850;7.578;2024-03-22T02:57:43;95978.19;;;4.17;57.42
77871;BME280;67067;46.850;7.578;2024-03-22T02:58:49;95980.44;;;4.20;56.96
77871;BME280;67067;46.850;7.578;2024-03-22T02:59:52;95977.81;;;4.20;56.95
77871;BME280;67067;46.850;7.578;2024-03-22T03:00:53;95978.81;;;4.19;57.35
77871;BME280;67067;46.850;7.578;2024-03-22T03:01:54;95978.38;;;4.15;57.27
77871;BME280;67067;46.850;7.578;2024-03-22T03:02:55;95971.53;;;4.14;57.03
77871;BME280;67067;46.850;7.578;2024-03-22T03:03:56;95974.69;;;4.09;57.26
77871;BME280;67067;46.850;7.578;2024-03-22T03:05:01;95966.63;;;4.04;57.51
77871;BME280;67067;46.850;7.578;2024-03-22T03:06:02;95968.66;;;4.09;57.40
77871;BME280;67067;46.850;7.578;2024-03-22T03:07:03;95966.84;;;4.09;57.19
77871;BME280;67067;46.850;7.578;2024-03-22T03:08:04;95974.53;;;4.11;57.37
77871;BME280;67067;46.850;7.578;2024-03-22T03:09:05;95970.91;;;4.12;57.27
77871;BME280;67067;46.850;7.578;2024-03-22T03:10:08;95972.97;;;4.17;56.89
77871;BME280;67067;46.850;7.578;2024-03-22T03:11:13;95974.56;;;4.18;56.88
77871;BME280;67067;46.850;7.578;2024-03-22T03:12:15;95967.34;;;4.20;56.69
77871;BME280;67067;46.850;7.578;2024-03-22T03:13:15;95977.59;;;4.15;56.75
77871;BME280;67067;46.850;7.578;2024-03-22T03:14:16;95967.22;;;4.06;56.62
77871;BME280;67067;46.850;7.578;2024-03-22T03:15:17;95967.22;;;4.06;56.00
77871;BME280;67067;46.850;7.578;2024-03-22T03:16:18;95962.81;;;4.07;56.36
77871;BME280;67067;46.850;7.578;2024-03-22T03:17:19;95972.47;;;4.06;56.06
77871;BME280;67067;46.850;7.578;2024-03-22T03:18:20;95962.19;;;4.05;56.09
77871;BME280;67067;46.850;7.578;2024-03-22T03:19:20;95961.38;;;4.04;56.13
77871;BME280;67067;46.850;7.578;2024-03-22T03:20:21;95968.44;;;4.04;56.00
77871;BME280;67067;46.850;7.578;2024-03-22T03:21:22;95966.22;;;4.07;55.94
77871;BME280;67067;46.850;7.578;2024-03-22T03:22:23;95965.22;;;4.08;56.22
77871;BME280;67067;46.850;7.578;2024-03-22T03:23:23;95961.19;;;4.06;56.04
77871;BME280;67067;46.850;7.578;2024-03-22T03:24:24;95966.63;;;4.04;56.06
77871;BME280;67067;46.850;7.578;2024-03-22T03:25:26;95964.00;;;4.04;56.11
77871;BME280;67067;46.850;7.578;2024-03-22T03:26:26;95955.13;;;4.05;55.82
77871;BME280;67067;46.850;7.578;2024-03-22T03:27:27;95959.97;;;4.02;56.03
77871;BME280;67067;46.850;7.578;2024-03-22T03:28:30;95959.75;;;4.03;56.04
77871;BME280;67067;46.850;7.578;2024-03-22T03:29:31;95955.13;;;4.05;55.77
77871;BME280;67067;46.850;7.578;2024-03-22T03:30:34;95949.88;;;4.05;55.83
77871;BME280;67067;46.850;7.578;2024-03-22T03:31:35;95946.88;;;4.08;56.08
77871;BME280;67067;46.850;7.578;2024-03-22T03:32:42;95953.94;;;4.08;56.44
77871;BME280;67067;46.850;7.578;2024-03-22T03:33:46;95950.31;;;4.09;56.54
77871;BME280;67067;46.850;7.578;2024-03-22T03:34:46;95948.88;;;4.06;56.79
77871;BME280;67067;46.850;7.578;2024-03-22T03:35:48;95950.81;;;3.91;57.09
77871;BME280;67067;46.850;7.578;2024-03-22T03:36:49;95954.13;;;4.06;56.89
77871;BME280;67067;46.850;7.578;2024-03-22T03:37:50;95946.88;;;4.08;56.61
77871;BME280;67067;46.850;7.578;2024-03-22T03:38:53;95946.88;;;4.08;56.59
77871;BME280;67067;46.850;7.578;2024-03-22T03:39:54;95949.16;;;4.11;56.56
77871;BME280;67067;46.850;7.578;2024-03-22T03:40:54;95946.31;;;4.13;56.45
77871;BME280;67067;46.850;7.578;2024-03-22T03:41:55;95951.00;;;4.18;56.47
77871;BME280;67067;46.850;7.578;2024-03-22T03:42:56;95942.13;;;4.19;56.49
77871;BME280;67067;46.850;7.578;2024-03-22T03:43:59;95943.16;;;4.24;56.32
77871;BME280;67067;46.850;7.578;2024-03-22T03:45:00;95941.97;;;4.27;56.13
77871;BME280;67067;46.850;7.578;2024-03-22T03:46:01;95941.97;;;4.27;56.09
77871;BME280;67067;46.850;7.578;2024-03-22T03:47:03;95942.19;;;4.32;55.99
77871;BME280;67067;46.850;7.578;2024-03-22T03:48:07;95939.56;;;4.32;55.89
77871;BME280;67067;46.850;7.578;2024-03-22T03:49:07;95939.38;;;4.34;55.61
77871;BME280;67067;46.850;7.578;2024-03-22T03:50:08;95940.75;;;4.30;55.43
77871;BME280;67067;46.850;7.578;2024-03-22T03:51:09;95939.97;;;4.29;55.35
77871;BME280;67067;46.850;7.578;2024-03-22T03:52:12;95941.16;;;4.26;55.31
77871;BME280;67067;46.850;7.578;2024-03-22T03:53:13;95939.53;;;4.25;55.39
77871;BME280;67067;46.850;7.578;2024-03-22T03:54:13;95938.34;;;4.28;55.45
77871;BME280;67067;46.850;7.578;2024-03-22T03:55:14;95939.13;;;4.28;55.74
77871;BME280;67067;46.850;7.578;2024-03-22T03:56:22;95940.56;;;4.31;55.63
77871;BME280;67067;46.850;7.578;2024-03-22T03:57:23;95935.94;;;4.33;55.49
77871;BME280;67067;46.850;7.578;2024-03-22T03:58:24;95935.53;;;4.30;55.65
77871;BME280;67067;46.850;7.578;2024-03-22T03:59:24;95931.91;;;4.31;55.54
77871;BME280;67067;46.850;7.578;2024-03-22T04:00:27;95931.72;;;4.32;55.64
77871;BME280;67067;46.850;7.578;2024-03-22T04:01:28;95929.72;;;4.34;55.40
77871;BME280;67067;46.850;7.578;2024-03-22T04:02:29;95925.88;;;4.37;55.50
77871;BME280;67067;46.850;7.578;2024-03-22T04:03:30;95928.31;;;4.38;55.44
77871;BME280;67067;46.850;7.578;2024-03-22T04:04:31;95924.28;;;4.42;55.58
77871;BME280;67067;46.850;7.578;2024-03-22T04:05:31;95921.28;;;4.46;55.66
77871;BME280;67067;46.850;7.578;2024-03-22T04:06:34;95918.28;;;4.49;56.08
77871;BME280;67067;46.850;7.578;2024-03-22T04:07:35;95917.47;;;4.55;55.78
77871;BME280;67067;46.850;7.578;2024-03-22T04:08:36;95928.19;;;4.60;55.82
77871;BME280;67067;46.850;7.578;2024-03-22T04:09:36;95915.50;;;4.64;56.10
77871;BME280;67067;46.850;7.578;2024-03-22T04:10:37;95925.41;;;4.68;55.87
77871;BME280;67067;46.850;7.578;2024-03-22T04:11:38;95920.75;;;4.70;55.57
77871;BME280;67067;46.850;7.578;2024-03-22T04:12:39;95917.13;;;4.71;55.70
77871;BME280;67067;46.850;7.578;2024-03-22T04:13:40;95918.13;;;4.70;55.60
77871;BME280;67067;46.850;7.578;2024-03-22T04:14:41;95929.25;;;4.72;55.69
77871;BME280;67067;46.850;7.578;2024-03-22T04:15:41;95920.00;;;4.77;55.69
77871;BME280;67067;46.850;7.578;2024-03-22T04:16:42;95922.41;;;4.78;55.93
77871;BME280;67067;46.850;7.578;2024-03-22T04:17:43;95924.44;;;4.83;55.74
77871;BME280;67067;46.850;7.578;2024-03-22T04:18:44;95915.56;;;4.84;55.61
77871;BME280;67067;46.850;7.578;2024-03-22T04:19:44;95909.53;;;4.90;55.62
77871;BME280;67067;46.850;7.578;2024-03-22T04:20:55;95922.44;;;4.85;55.83
77871;BME280;67067;46.850;7.578;2024-03-22T04:21:56;95922.84;;;4.89;55.83
77871;BME280;67067;46.850;7.578;2024-03-22T04:23:00;95910.31;;;4.91;55.88
77871;BME280;67067;46.850;7.578;2024-03-22T04:24:00;95912.94;;;4.91;55.88
77871;BME280;67067;46.850;7.578;2024-03-22T04:25:02;95911.16;;;4.91;55.86
77871;BME280;67067;46.850;7.578;2024-03-22T04:26:07;95909.72;;;4.89;55.85
77871;BME280;67067;46.850;7.578;2024-03-22T04:27:07;95914.78;;;4.97;55.47
77871;BME280;67067;46.850;7.578;2024-03-22T04:28:08;95911.16;;;4.91;55.58
77871;BME280;67067;46.850;7.578;2024-03-22T04:29:14;95912.38;;;4.95;55.94
77871;BME280;67067;46.850;7.578;2024-03-22T04:30:14;95913.59;;;4.99;55.68
77871;BME280;67067;46.850;7.578;2024-03-22T04:31:15;95909.97;;;5.00;55.78
77871;BME280;67067;46.850;7.578;2024-03-22T04:32:16;95915.00;;;5.02;55.54
77871;BME280;67067;46.850;7.578;2024-03-22T04:33:17;95913.59;;;5.06;55.46
77871;BME280;67067;46.850;7.578;2024-03-22T04:34:17;95917.25;;;5.12;55.33
77871;BME280;67067;46.850;7.578;2024-03-22T04:35:20;95916.84;;;5.15;55.13
77871;BME280;67067;46.850;7.578;2024-03-22T04:36:21;95918.44;;;5.16;55.42
77871;BME280;67067;46.850;7.578;2024-03-22T04:37:23;95912.81;;;5.19;55.36
77871;BME280;67067;46.850;7.578;2024-03-22T04:38:27;95916.84;;;5.15;55.25
77871;BME280;67067;46.850;7.578;2024-03-22T04:39:28;95917.25;;;5.12;55.43
77871;BME280;67067;46.850;7.578;2024-03-22T04:40:29;95916.03;;;5.08;55.42
77871;BME280;67067;46.850;7.578;2024-03-22T04:41:30;95922.47;;;5.12;55.49
77871;BME280;67067;46.850;7.578;2024-03-22T04:42:31;95920.06;;;5.04;55.47
77871;BME280;67067;46.850;7.578;2024-03-22T04:43:34;95924.09;;;5.13;55.40
77871;BME280;67067;46.850;7.578;2024-03-22T04:44:37;95913.78;;;4.98;55.65
77871;BME280;67067;46.850;7.578;2024-03-22T04:45:38;95911.97;;;5.05;55.48
77871;BME280;67067;46.850;7.578;2024-03-22T04:46:39;95918.03;;;5.06;55.40
77871;BME280;67067;46.850;7.578;2024-03-22T04:47:40;95913.59;;;5.13;55.16
77871;BME280;67067;46.850;7.578;2024-03-22T04:48:41;95915.22;;;5.14;55.37
77871;BME280;67067;46.850;7.578;2024-03-22T04:49:42;95913.59;;;5.13;55.27
77871;BME280;67067;46.850;7.578;2024-03-22T04:50:45;95907.94;;;5.09;55.34
77871;BME280;67067;46.850;7.578;2024-03-22T04:51:46;95920.47;;;5.14;55.22
77871;BME280;67067;46.850;7.578;2024-03-22T04:52:47;95912.81;;;5.19;55.17
77871;BME280;67067;46.850;7.578;2024-03-22T04:53:50;95910.00;;;5.21;55.28
77871;BME280;67067;46.850;7.578;2024-03-22T04:54:51;95912.59;;;5.14;55.26
77871;BME280;67067;46.850;7.578;2024-03-22T04:55:52;95906.16;;;5.17;55.03
77871;BME280;67067;46.850;7.578;2024-03-22T04:56:53;95901.91;;;5.22;55.00
77871;BME280;67067;46.850;7.578;2024-03-22T04:57:54;95907.16;;;5.22;55.25
77871;BME280;67067;46.850;7.578;2024-03-22T04:58:55;95907.16;;;5.22;55.09
77871;BME280;67067;46.850;7.578;2024-03-22T04:59:58;95911.59;;;5.28;55.08
77871;BME280;67067;46.850;7.578;2024-03-22T05:02:21;95902.06;;;4.94;55.99
77871;BME280;67067;46.850;7.578;2024-03-22T05:03:22;95896.00;;;4.80;56.63
77871;BME280;67067;46.850;7.578;2024-03-22T05:04:23;95899.84;;;4.84;56.42
77871;BME280;67067;46.850;7.578;2024-03-22T05:05:24;95899.44;;;4.94;56.41
77871;BME280;67067;46.850;7.578;2024-03-22T05:06:25;95899.66;;;5.06;56.09
77871;BME280;67067;46.850;7.578;2024-03-22T05:07:26;95893.81;;;5.17;55.95
77871;BME280;67067;46.850;7.578;2024-03-22T05:08:26;95893.22;;;5.22;56.01
77871;BME280;67067;46.850;7.578;2024-03-22T05:09:27;95890.00;;;5.26;55.54
77871;BME280;67067;46.850;7.578;2024-03-22T05:10:31;95893.44;;;5.34;55.55
77871;BME280;67067;46.850;7.578;2024-03-22T05:11:34;95896.66;;;5.36;55.58
77871;BME280;67067;46.850;7.578;2024-03-22T05:12:35;95893.84;;;5.44;55.33
77871;BME280;67067;46.850;7.578;2024-03-22T05:13:36;95892.84;;;5.52;55.48
77871;BME280;67067;46.850;7.578;2024-03-22T05:14:39;95891.06;;;5.52;55.19
77871;BME280;67067;46.850;7.578;2024-03-22T05:15:40;95897.09;;;5.59;55.23
77871;BME280;67067;46.850;7.578;2024-03-22T05:16:40;95889.00;;;5.68;55.22
77871;BME280;67067;46.850;7.578;2024-03-22T05:17:44;95896.47;;;5.71;54.99
77871;BME280;67067;46.850;7.578;2024-03-22T05:18:45;95895.06;;;5.75;54.75
77871;BME280;67067;46.850;7.578;2024-03-22T05:19:45;95886.78;;;5.78;54.68
77871;BME280;67067;46.850;7.578;2024-03-22T05:20:48;95891.00;;;5.79;54.64
77871;BME280;67067;46.850;7.578;2024-03-22T05:21:49;95893.03;;;5.77;54.81
77871;BME280;67067;46.850;7.578;2024-03-22T05:22:50;95881.31;;;5.80;54.76
77871;BME280;67067;46.850;7.578;2024-03-22T05:23:51;95878.91;;;5.85;54.58
77871;BME280;67067;46.850;7.578;2024-03-22T05:24:51;95881.31;;;5.86;54.33
77871;BME280;67067;46.850;7.578;2024-03-22T05:25:52;95876.88;;;5.80;54.59
77871;BME280;67067;46.850;7.578;2024-03-22T05:26:53;95881.09;;;5.81;54.50
77871;BME280;67067;46.850;7.578;2024-03-22T05:27:54;95882.13;;;5.80;54.41
77871;BME280;67067;46.850;7.578;2024-03-22T05:28:57;95887.00;;;5.77;54.58
77871;BME280;67067;46.850;7.578;2024-03-22T05:29:58;95882.13;;;5.80;54.28
77871;BME280;67067;46.850;7.578;2024-03-22T05:30:59;95881.09;;;5.81;54.04
77871;BME280;67067;46.850;7.578;2024-03-22T05:32:00;95880.91;;;5.69;54.24
77871;BME280;67067;46.850;7.578;2024-03-22T05:33:03;95873.84;;;5.77;54.36
77871;BME280;67067;46.850;7.578;2024-03-22T05:34:06;95880.72;;;5.78;54.32
77871;BME280;67067;46.850;7.578;2024-03-22T05:35:07;95879.31;;;5.75;54.38
77871;BME280;67067;46.850;7.578;2024-03-22T05:36:08;95875.84;;;5.74;54.28
77871;BME280;67067;46.850;7.578;2024-03-22T05:37:09;95877.50;;;5.69;54.25
77871;BME280;67067;46.850;7.578;2024-03-22T05:38:11;95875.25;;;5.72;54.04
77871;BME280;67067;46.850;7.578;2024-03-22T05:39:17;95876.69;;;5.75;54.00
77871;BME280;67067;46.850;7.578;2024-03-22T05:40:18;95876.50;;;5.77;53.96
77871;BME280;67067;46.850;7.578;2024-03-22T05:41:18;95880.91;;;5.69;54.23
77871;BME280;67067;46.850;7.578;2024-03-22T05:42:19;95876.88;;;5.73;54.49